** WELKOM OP ONZE WEBSITE MET ACTUELE WEERDATA VANUIT IZEGEM **
Het weer levert geen direct gevaar op.    Er zijn geen waarschuwingen afgegeven.

Weercam te Izegem Meer informatie Weercam te Izegem


Lokaal brand risico:
FWI


Regionaal brand risico: Meer informatie


Steun ons initiatief via een kleine donatie!



METAR rapporten vliegvelden

   
EBOS - Oostende Airport, Belgium
Afstand tot: NW 39 km
Gewijzigd: 17-11-2019 23:50
Licht bewolkt  
Licht bewolkt  
   Wind: varieert 1.9 km/h
Wind: varieert 1.9 km/h
Temperatuur: 3°C
Dauwpunt: 1°C
Vochtigheid: 87%
Barometer: 1010 hPa
Bewolking: Few Clouds
Zicht: meer dan 10 km
Bewolking: Licht bewolkt 2500 ft
EBOS 172250Z VRB01KT 9999 FEW025 03/01 Q1010 NOSIG
LFQQ - Lille/Lesquin, France
Afstand tot: Z 40 km
Gewijzigd: 18-11-2019 00:00
Gedeeltelijk bewolkt  
Gedeeltelijk bewolkt  
   Wind: NW 7.4 km/h
Wind: NW 7.4 km/h
Temperatuur: 4°C
Voelt als: 2°C
Dauwpunt: 2°C
Vochtigheid: 87%
Barometer: 1010 hPa
Bewolking: Partly Cloudy
Zicht: 9 km
Bewolking: Gedeeltelijk bewolkt ft
LFQQ 172300Z AUTO 32004KT 9000 NSC 04/02 Q1010 NOSIG
EBFN - Koksijde (bel-Af, Belgium
Afstand tot: WNW 43 km
Gewijzigd: 17-11-2019 23:55
Grotendeels bewolkt  
Grotendeels bewolkt  
   Wind: WZW 5.6 km/h
Wind: WZW 5.6 km/h
Temperatuur: 3°C
Voelt als: 2°C
Dauwpunt: 2°C
Vochtigheid: 93%
Barometer: 1011 hPa
Bewolking: Mostly Cloudy
Zicht: 7 km
Bewolking: Grotendeels bewolkt 17000 ft,
Grotendeels bewolkt 22000 ft
EBFN 172255Z AUTO 25003KT 7000 BKN170/// BKN220/// 03/02 Q1011 WHT
EBCV - Chievres Ab, Belgium
Afstand tot: ZO 59 km
Gewijzigd: 17-11-2019 23:55
Grotendeels bewolkt  
Grotendeels bewolkt  
   Wind: NNW 9.3 km/h
Wind: NNW 9.3 km/h
Temperatuur: 3°C
Voelt als: 1°C
Dauwpunt: 2°C
Vochtigheid: 93%
Barometer: 1009 hPa
Bewolking: Mostly Cloudy
Zicht: 6 km
Bewolking: Grotendeels bewolkt 14000 ft
EBCV 172255Z AUTO 33005KT 6000 BKN140/// 03/02 Q1009 WHT
EHFS - Vlissingen, Netherlands
Afstand tot: NNO 65 km
Gewijzigd: 17-11-2019 23:25
Gedeeltelijk bewolkt  
Gedeeltelijk bewolkt  
   Wind: NNO 7.4 km/h
Wind: NNO 7.4 km/h
Temperatuur: 6°C
Voelt als: 4°C
Dauwpunt: 3°C
Vochtigheid: 81%
Barometer: 1010 hPa
Bewolking: Partly Cloudy
Zicht: meer dan 10 km
Bewolking: Gedeeltelijk bewolkt ft
EHFS 172225Z AUTO 02004KT 9999 NSC 06/03 Q1010 W///H///
EBBR - Brussels Nationa, Belgium
Afstand tot: O 91 km
Gewijzigd: 17-11-2019 23:50
Helder  
Helder  
   Wind: Noorden 5.6 km/h
Wind: Noorden 5.6 km/h
Temperatuur: 4°C
Voelt als: 3°C
Dauwpunt: 2°C
Vochtigheid: 87%
Barometer: 1009 hPa
Zicht: meer dan 10 km
Bewolking: Helder ft
EBBR 172250Z 36003KT CAVOK 04/02 Q1009 NOSIG
EBAW - Antwerp/Deurne, Belgium
Afstand tot: ONO 94 km
Gewijzigd: 17-11-2019 23:50
Helder  
Helder  
   Wind: Noorden 9.3 km/h
Wind: Noorden 9.3 km/h
Temperatuur: 5°C
Voelt als: 3°C
Dauwpunt: 2°C
Vochtigheid: 81%
Barometer: 1009 hPa
Zicht: meer dan 10 km
Bewolking: Helder ft
EBAW 172250Z AUTO 35005KT 320V020 CAVOK 05/02 Q1009
EHWO - Woensdrecht Rnla, Netherlands
Afstand tot: NO 98 km
Gewijzigd: 17-11-2019 23:55
Bewolking  
Bewolking  
   Wind: Noorden 7.4 km/h
Wind: Noorden 7.4 km/h
Temperatuur: 4°C
Voelt als: 2°C
Dauwpunt: 2°C
Vochtigheid: 87%
Barometer: 1009 hPa
Bewolking: Overcast
Zicht: meer dan 10 km
Bewolking: Bewolking 10000 ft
EHWO 172255Z AUTO 35004KT 320V030 9999 OVC100 04/02 Q1009 BLU
EBCI - Charleroi/Gossel, Belgium
Afstand tot: OZO 102 km
Gewijzigd: 17-11-2019 23:50
Gedeeltelijk bewolkt  
Gedeeltelijk bewolkt  
   Wind: NNW 9.3 km/h
Wind: NNW 9.3 km/h
Temperatuur: 3°C
Voelt als: 1°C
Dauwpunt: 2°C
Vochtigheid: 93%
Barometer: 1008 hPa
Bewolking: Partly Cloudy
Zicht: 9 km
Bewolking: Gedeeltelijk bewolkt ft
EBCI 172250Z 34005KT 9000 NSC 03/02 Q1008 NOSIG

Script ontwikkeld door  Saratoga-weather.org Aangepast voor de template door  Weerstation Leuven